Time;durP1;ratioP1;P1;durP2;ratioP2;P2;SDS_P1;SDS_P2;PMS_P1;PMS_P2;Temp;Humidity;BMP_temperature;BMP_pressure;BME280_temperature;BME280_humidity;BME280_pressure;Samples;Min_cycle;Max_cycle;Signal;HPM_P1;HPM_P2
2022/11/21 00:01:22;;;;;;;7.43;5.82;;;;;;;;;;5029035;28;20026;-77
2022/11/21 00:03:48;;;;;;;7.15;5.25;;;;;;;;;;5012282;28;20034;-77
2022/11/21 00:06:14;;;;;;;7.38;5.43;;;;;;;;;;5012346;28;20030;-77
2022/11/21 00:08:39;;;;;;;6.82;5.50;;;;;;;;;;5012649;28;20112;-77
2022/11/21 00:11:04;;;;;;;7.32;5.80;;;;;;;;;;5012244;28;20157;-77
2022/11/21 00:13:30;;;;;;;7.38;5.28;;;;;;;;;;5013764;28;20022;-77
2022/11/21 00:15:55;;;;;;;5.95;5.03;;;;;;;;;;5013703;28;20145;-77
2022/11/21 00:18:21;;;;;;;6.25;5.47;;;;;;;;;;5028757;28;20096;-77
2022/11/21 00:20:46;;;;;;;6.32;5.45;;;;;;;;;;5013885;28;20038;-77
2022/11/21 00:23:11;;;;;;;6.88;5.90;;;;;;;;;;5012609;28;20034;-78
2022/11/21 00:25:37;;;;;;;5.93;5.07;;;;;;;;;;5012235;28;20106;-78
2022/11/21 00:28:03;;;;;;;6.80;5.60;;;;;;;;;;5012269;28;20168;-78
2022/11/21 00:30:29;;;;;;;7.00;5.30;;;;;;;;;;5014234;28;20065;-78
2022/11/21 00:32:56;;;;;;;6.00;5.40;;;;;;;;;;5012010;28;20583;-77
2022/11/21 00:35:22;;;;;;;8.02;5.25;;;;;;;;;;4995812;28;20061;-78
2022/11/21 00:37:47;;;;;;;6.35;5.30;;;;;;;;;;5015465;28;20057;-78
2022/11/21 00:40:13;;;;;;;6.55;5.38;;;;;;;;;;5017831;28;20034;-78
2022/11/21 00:42:38;;;;;;;7.88;5.68;;;;;;;;;;5017099;28;20037;-78
2022/11/21 00:45:04;;;;;;;6.80;5.65;;;;;;;;;;5015954;28;20034;-77
2022/11/21 00:47:29;;;;;;;6.30;5.28;;;;;;;;;;5016050;28;20033;-78
2022/11/21 00:49:55;;;;;;;6.25;5.20;;;;;;;;;;5016971;28;20038;-78
2022/11/21 00:52:20;;;;;;;7.32;5.43;;;;;;;;;;5048705;28;20034;-77
2022/11/21 00:54:45;;;;;;;9.68;5.63;;;;;;;;;;5015784;28;20053;-77
2022/11/21 00:57:11;;;;;;;5.63;5.00;;;;;;;;;;5017020;28;20057;-77
2022/11/21 00:59:36;;;;;;;6.70;5.40;;;;;;;;;;5032062;28;20427;-78
2022/11/21 01:02:02;;;;;;;6.55;5.00;;;;;;;;;;4999346;28;20032;-78
2022/11/21 01:04:31;;;;;;;7.90;5.25;;;;;;;;;;5016747;28;20076;-77
2022/11/21 01:06:57;;;;;;;7.47;5.35;;;;;;;;;;5016155;28;20046;-77
2022/11/21 01:09:22;;;;;;;6.10;5.05;;;;;;;;;;4998985;28;20092;-77
2022/11/21 01:11:48;;;;;;;6.95;5.70;;;;;;;;;;5016748;28;20033;-78
2022/11/21 01:14:13;;;;;;;7.95;5.10;;;;;;;;;;5015429;28;20026;-77
2022/11/21 01:16:38;;;;;;;12.23;5.60;;;;;;;;;;5015212;28;20029;-78
2022/11/21 01:19:04;;;;;;;5.78;5.18;;;;;;;;;;5015553;28;20042;-77
2022/11/21 01:21:30;;;;;;;6.28;5.45;;;;;;;;;;5016654;28;20030;-77
2022/11/21 01:23:58;;;;;;;5.93;5.30;;;;;;;;;;5015135;28;20061;-77
2022/11/21 01:26:25;;;;;;;6.60;5.40;;;;;;;;;;5031678;28;20048;-78
2022/11/21 01:28:51;;;;;;;5.70;5.10;;;;;;;;;;5015607;28;20036;-77
2022/11/21 01:31:18;;;;;;;5.65;4.82;;;;;;;;;;5031557;28;20445;-77
2022/11/21 01:33:43;;;;;;;6.32;5.57;;;;;;;;;;5047801;28;20049;-78
2022/11/21 01:36:13;;;;;;;7.15;5.30;;;;;;;;;;5016280;28;20042;-78
2022/11/21 01:38:40;;;;;;;6.35;5.40;;;;;;;;;;5047803;28;20030;-78
2022/11/21 01:41:06;;;;;;;6.60;5.72;;;;;;;;;;5048239;28;20018;-78
2022/11/21 01:43:32;;;;;;;6.13;5.22;;;;;;;;;;5014832;28;20026;-77
2022/11/21 01:46:06;;;;;;;6.53;5.40;;;;;;;;;;5014780;28;20414;-78
2022/11/21 01:48:43;;;;;;;6.70;5.85;;;;;;;;;;5015540;28;20485;-78
2022/11/21 01:51:34;;;;;;;6.47;5.60;;;;;;;;;;5014658;28;20041;-78
2022/11/21 01:54:17;;;;;;;8.57;5.35;;;;;;;;;;5015756;28;20038;-78
2022/11/21 01:56:47;;;;;;;7.07;5.47;;;;;;;;;;5015645;28;20112;-78
2022/11/21 01:59:35;;;;;;;8.30;5.60;;;;;;;;;;5047412;28;20111;-78
2022/11/21 02:02:01;;;;;;;6.43;5.22;;;;;;;;;;5015208;28;20041;-78
2022/11/21 02:04:30;;;;;;;6.13;5.40;;;;;;;;;;5015696;28;20026;-78
2022/11/21 02:06:55;;;;;;;6.20;5.10;;;;;;;;;;5030678;28;20045;-78
2022/11/21 02:09:21;;;;;;;6.07;5.05;;;;;;;;;;5014263;28;20393;-77
2022/11/21 02:11:53;;;;;;;7.60;5.45;;;;;;;;;;5015511;28;20400;-78
2022/11/21 02:14:19;;;;;;;5.72;4.95;;;;;;;;;;5014117;28;20026;-77
2022/11/21 02:16:45;;;;;;;6.40;5.45;;;;;;;;;;5015603;28;20535;-77
2022/11/21 02:19:20;;;;;;;6.95;5.63;;;;;;;;;;5015256;28;20057;-77
2022/11/21 02:22:02;;;;;;;5.57;4.80;;;;;;;;;;5014373;28;20108;-77
2022/11/21 02:24:46;;;;;;;6.53;5.65;;;;;;;;;;5014030;28;20032;-78
2022/11/21 02:27:11;;;;;;;9.57;6.10;;;;;;;;;;5013977;28;20396;-77
2022/11/21 02:29:38;;;;;;;7.60;5.78;;;;;;;;;;5030361;28;20033;-78
2022/11/21 02:32:04;;;;;;;6.05;5.18;;;;;;;;;;5046800;28;20104;-77
2022/11/21 02:34:31;;;;;;;8.35;5.82;;;;;;;;;;5013713;28;20056;-77
2022/11/21 02:36:56;;;;;;;6.57;5.35;;;;;;;;;;5030169;28;20058;-78
2022/11/21 02:39:26;;;;;;;8.77;5.85;;;;;;;;;;5046784;28;20507;-77
2022/11/21 02:42:18;;;;;;;6.32;5.65;;;;;;;;;;5014057;28;20137;-77
2022/11/21 02:45:09;;;;;;;5.72;5.10;;;;;;;;;;4991855;28;20129;-77
2022/11/21 02:47:35;;;;;;;6.40;5.53;;;;;;;;;;5013739;28;20049;-77
2022/11/21 02:50:14;;;;;;;6.13;5.22;;;;;;;;;;5013561;28;20420;-78
2022/11/21 02:52:40;;;;;;;7.25;5.47;;;;;;;;;;5029778;28;20029;-77
2022/11/21 02:55:06;;;;;;;5.80;5.18;;;;;;;;;;5029881;28;20033;-77
2022/11/21 02:57:31;;;;;;;6.65;5.57;;;;;;;;;;5014784;28;20052;-78
2022/11/21 02:59:56;;;;;;;6.38;5.55;;;;;;;;;;5045814;28;20076;-77
2022/11/21 03:02:22;;;;;;;7.00;5.57;;;;;;;;;;5013473;28;20087;-77
2022/11/21 03:04:47;;;;;;;6.28;5.38;;;;;;;;;;5013601;28;20495;-78
2022/11/21 03:07:13;;;;;;;6.53;5.70;;;;;;;;;;5046256;28;20038;-78
2022/11/21 03:09:38;;;;;;;18.88;5.25;;;;;;;;;;5014299;28;20432;-78
2022/11/21 03:12:06;;;;;;;7.22;5.30;;;;;;;;;;4996721;28;20030;-78
2022/11/21 03:14:31;;;;;;;8.27;5.65;;;;;;;;;;5013258;28;20022;-78
2022/11/21 03:16:56;;;;;;;6.63;5.32;;;;;;;;;;5013034;28;20030;-78
2022/11/21 03:19:22;;;;;;;6.18;5.47;;;;;;;;;;5046077;28;20034;-78
2022/11/21 03:21:47;;;;;;;7.22;5.80;;;;;;;;;;5014388;28;20026;-78
2022/11/21 03:24:13;;;;;;;6.45;5.43;;;;;;;;;;5013605;28;20084;-78
2022/11/21 03:26:38;;;;;;;6.82;5.50;;;;;;;;;;5012971;28;20053;-78
2022/11/21 03:29:03;;;;;;;6.68;5.30;;;;;;;;;;5013148;28;20109;-78
2022/11/21 03:31:29;;;;;;;6.30;5.40;;;;;;;;;;5014321;28;20029;-78
2022/11/21 03:33:54;;;;;;;7.55;5.70;;;;;;;;;;5012627;28;20095;-78
2022/11/21 03:36:19;;;;;;;6.90;5.65;;;;;;;;;;5045651;28;20030;-78
2022/11/21 03:38:45;;;;;;;7.45;5.85;;;;;;;;;;5012941;28;20026;-78
2022/11/21 03:41:28;;;;;;;6.32;5.30;;;;;;;;;;5012209;28;20036;-77
2022/11/21 03:44:03;;;;;;;6.78;5.53;;;;;;;;;;5031244;28;20445;-77
2022/11/21 03:46:30;;;;;;;8.60;5.60;;;;;;;;;;5012774;28;20029;-77
2022/11/21 03:48:55;;;;;;;7.25;5.57;;;;;;;;;;5012573;28;20084;-77
2022/11/21 03:51:21;;;;;;;6.20;5.40;;;;;;;;;;5045384;28;20030;-77
2022/11/21 03:53:46;;;;;;;6.57;5.78;;;;;;;;;;5028733;28;20117;-77
2022/11/21 03:56:12;;;;;;;7.43;5.97;;;;;;;;;;5045278;28;20034;-77
2022/11/21 03:58:37;;;;;;;7.28;5.95;;;;;;;;;;5012313;28;20097;-77
2022/11/21 04:01:03;;;;;;;9.20;6.22;;;;;;;;;;5012592;28;20030;-78
2022/11/21 04:03:29;;;;;;;8.18;6.30;;;;;;;;;;5013534;28;20034;-78
2022/11/21 04:05:55;;;;;;;8.20;6.70;;;;;;;;;;4995803;28;20477;-78
2022/11/21 04:08:20;;;;;;;7.68;6.07;;;;;;;;;;5013546;28;20034;-78
2022/11/21 04:10:50;;;;;;;9.07;6.28;;;;;;;;;;5012156;28;20045;-78
2022/11/21 04:13:16;;;;;;;11.45;6.47;;;;;;;;;;5028675;28;20033;-78
2022/11/21 04:15:42;;;;;;;7.30;6.22;;;;;;;;;;5012497;28;20038;-78
2022/11/21 04:18:08;;;;;;;7.97;6.57;;;;;;;;;;5012043;28;20026;-78
2022/11/21 04:20:33;;;;;;;7.55;6.03;;;;;;;;;;5013705;28;20060;-78
2022/11/21 04:22:58;;;;;;;7.60;6.47;;;;;;;;;;5012043;28;20037;-78
2022/11/21 04:25:24;;;;;;;9.32;6.57;;;;;;;;;;5012740;28;20032;-78
2022/11/21 04:27:49;;;;;;;7.85;6.47;;;;;;;;;;5028376;28;20034;-78
2022/11/21 04:30:15;;;;;;;7.78;6.20;;;;;;;;;;5028583;28;20026;-78
2022/11/21 04:32:40;;;;;;;8.93;7.30;;;;;;;;;;5011852;28;20064;-78
2022/11/21 04:35:06;;;;;;;9.98;7.75;;;;;;;;;;5013402;28;20065;-78
2022/11/21 04:37:31;;;;;;;8.30;6.40;;;;;;;;;;5013167;28;20029;-77
2022/11/21 04:39:57;;;;;;;8.52;6.85;;;;;;;;;;5012013;28;20168;-77
2022/11/21 04:42:22;;;;;;;8.02;6.50;;;;;;;;;;5044948;28;20034;-77
2022/11/21 04:44:48;;;;;;;8.13;6.80;;;;;;;;;;5013529;28;20390;-77
2022/11/21 04:47:13;;;;;;;7.60;6.47;;;;;;;;;;5028451;28;20034;-77
2022/11/21 04:49:38;;;;;;;6.70;6.00;;;;;;;;;;5012127;28;20049;-78
2022/11/21 04:52:04;;;;;;;7.43;6.40;;;;;;;;;;5044837;28;20030;-77
2022/11/21 04:54:29;;;;;;;8.05;6.30;;;;;;;;;;5011686;28;20050;-77
2022/11/21 04:56:54;;;;;;;8.25;6.60;;;;;;;;;;5013269;28;20428;-77
2022/11/21 04:59:20;;;;;;;7.47;6.20;;;;;;;;;;5013238;28;20034;-77
2022/11/21 05:01:48;;;;;;;8.10;6.30;;;;;;;;;;5012481;28;20037;-77
2022/11/21 05:04:13;;;;;;;8.38;6.45;;;;;;;;;;5014177;28;20034;-77
2022/11/21 05:06:39;;;;;;;10.15;7.40;;;;;;;;;;5012354;28;20491;-78
2022/11/21 05:09:04;;;;;;;14.75;6.88;;;;;;;;;;5027853;28;20029;-75
2022/11/21 05:14:14;;;;;;;12.43;7.05;;;;;;;;;;5011569;28;20033;-76
2022/11/21 05:16:40;;;;;;;14.52;7.38;;;;;;;;;;5011532;28;20073;-75
2022/11/21 05:19:06;;;;;;;9.25;6.50;;;;;;;;;;5011233;28;20074;-76
2022/11/21 05:21:31;;;;;;;11.25;6.13;;;;;;;;;;5010482;28;20112;-76
2022/11/21 05:23:57;;;;;;;9.68;6.68;;;;;;;;;;5011976;28;20149;-77
2022/11/21 05:26:22;;;;;;;10.10;7.53;;;;;;;;;;5014074;28;20038;-77
2022/11/21 05:28:48;;;;;;;11.57;7.20;;;;;;;;;;5030051;28;20034;-77
2022/11/21 05:31:13;;;;;;;11.35;7.20;;;;;;;;;;5030477;28;20045;-77
2022/11/21 05:33:38;;;;;;;16.13;8.18;;;;;;;;;;5013285;28;20054;-76
2022/11/21 05:36:04;;;;;;;14.05;7.03;;;;;;;;;;5015269;28;20029;-76
2022/11/21 05:38:29;;;;;;;14.30;7.30;;;;;;;;;;5013696;28;20350;-77
2022/11/21 05:40:54;;;;;;;13.48;7.18;;;;;;;;;;5015845;28;20053;-78
2022/11/21 05:46:04;;;;;;;9.70;6.72;;;;;;;;;;5014249;28;20041;-77
2022/11/21 05:48:29;;;;;;;15.27;7.18;;;;;;;;;;5013947;28;20030;-76
2022/11/21 05:50:55;;;;;;;17.50;7.50;;;;;;;;;;5015410;28;20542;-77
2022/11/21 05:53:20;;;;;;;27.55;9.93;;;;;;;;;;5013691;28;20445;-78
2022/11/21 05:55:48;;;;;;;56.40;13.05;;;;;;;;;;5013973;28;20080;-77
2022/11/21 05:58:14;;;;;;;49.20;11.32;;;;;;;;;;5014969;28;20083;-77
2022/11/21 06:00:40;;;;;;;31.90;10.90;;;;;;;;;;5015168;28;20025;-77
2022/11/21 06:05:49;;;;;;;35.22;10.48;;;;;;;;;;4999537;28;20511;-77
2022/11/21 06:08:16;;;;;;;40.58;10.52;;;;;;;;;;4997280;28;20034;-77
2022/11/21 06:10:42;;;;;;;34.70;10.07;;;;;;;;;;4983302;28;20030;-78
2022/11/21 06:13:20;;;;;;;32.90;10.50;;;;;;;;;;4998528;28;20022;-77
2022/11/21 06:15:53;;;;;;;26.25;10.48;;;;;;;;;;4998805;28;20057;-78
2022/11/21 06:18:19;;;;;;;25.02;9.90;;;;;;;;;;4996527;28;20057;-77
2022/11/21 06:20:44;;;;;;;21.10;10.00;;;;;;;;;;4999109;28;20026;-78
2022/11/21 06:23:10;;;;;;;24.52;11.23;;;;;;;;;;4996475;28;20038;-77
2022/11/21 06:25:36;;;;;;;19.13;9.82;;;;;;;;;;4995732;28;20042;-77
2022/11/21 06:28:01;;;;;;;21.00;9.90;;;;;;;;;;5000451;28;20050;-76
2022/11/21 06:30:26;;;;;;;18.52;9.25;;;;;;;;;;5003146;28;20035;-79
2022/11/21 06:32:53;;;;;;;19.10;9.77;;;;;;;;;;5000101;28;20058;-79
2022/11/21 06:35:18;;;;;;;20.13;10.18;;;;;;;;;;5001665;28;20466;-79
2022/11/21 06:37:44;;;;;;;19.23;9.25;;;;;;;;;;4996781;28;20034;-79
2022/11/21 06:40:10;;;;;;;18.52;9.50;;;;;;;;;;4996116;28;20038;-79
2022/11/21 06:42:35;;;;;;;16.85;9.35;;;;;;;;;;4994194;28;20478;-78
2022/11/21 06:45:00;;;;;;;14.02;8.82;;;;;;;;;;4994082;28;20092;-78
2022/11/21 06:47:26;;;;;;;17.30;10.27;;;;;;;;;;4995561;28;20026;-78
2022/11/21 06:49:51;;;;;;;15.05;9.18;;;;;;;;;;4995574;28;20117;-78
2022/11/21 06:52:16;;;;;;;14.50;9.02;;;;;;;;;;4995704;28;20445;-79
2022/11/21 06:54:42;;;;;;;15.60;9.52;;;;;;;;;;4995584;28;20066;-79
2022/11/21 06:57:07;;;;;;;13.50;9.13;;;;;;;;;;4994050;28;20038;-79
2022/11/21 06:59:33;;;;;;;17.15;9.43;;;;;;;;;;4995720;28;20125;-78
2022/11/21 07:01:59;;;;;;;13.32;9.18;;;;;;;;;;5009875;28;20042;-78
2022/11/21 07:04:24;;;;;;;13.70;8.80;;;;;;;;;;4993552;28;20113;-78
2022/11/21 07:06:49;;;;;;;14.43;8.85;;;;;;;;;;4993820;28;20060;-79
2022/11/21 07:09:15;;;;;;;12.40;8.70;;;;;;;;;;4994278;28;20049;-78
2022/11/21 07:11:40;;;;;;;13.13;8.70;;;;;;;;;;4993411;28;20029;-79
2022/11/21 07:14:05;;;;;;;14.43;8.98;;;;;;;;;;5009967;28;20100;-78
2022/11/21 07:16:32;;;;;;;12.90;8.48;;;;;;;;;;4994883;28;20034;-78
2022/11/21 07:18:59;;;;;;;12.05;8.38;;;;;;;;;;4995998;28;20033;-78
2022/11/21 07:21:24;;;;;;;10.40;7.75;;;;;;;;;;4995212;28;20018;-78
2022/11/21 07:23:50;;;;;;;11.65;8.70;;;;;;;;;;4995847;28;20034;-79
2022/11/21 07:26:15;;;;;;;13.93;9.20;;;;;;;;;;4995947;28;20041;-79
2022/11/21 07:28:41;;;;;;;11.23;7.75;;;;;;;;;;4994623;28;20038;-78
2022/11/21 07:31:08;;;;;;;12.65;8.75;;;;;;;;;;4977412;28;20041;-79
2022/11/21 07:33:33;;;;;;;15.23;8.65;;;;;;;;;;4977196;28;20114;-78
2022/11/21 07:35:59;;;;;;;14.27;8.35;;;;;;;;;;4993381;28;20038;-78
2022/11/21 07:38:25;;;;;;;10.82;7.72;;;;;;;;;;4994605;28;20065;-79
2022/11/21 07:40:51;;;;;;;13.75;8.18;;;;;;;;;;4992956;28;20045;-79
2022/11/21 07:43:16;;;;;;;12.98;8.43;;;;;;;;;;4994364;28;20042;-78
2022/11/21 07:45:41;;;;;;;16.70;8.88;;;;;;;;;;4976165;28;20026;-79
2022/11/21 07:48:08;;;;;;;13.60;8.70;;;;;;;;;;5009154;28;20125;-79
2022/11/21 07:50:34;;;;;;;10.48;7.88;;;;;;;;;;4994232;28;20437;-78
2022/11/21 07:53:04;;;;;;;11.93;7.85;;;;;;;;;;4994328;28;20057;-79
2022/11/21 07:55:30;;;;;;;11.35;8.82;;;;;;;;;;4994118;28;20425;-78
2022/11/21 07:58:15;;;;;;;11.18;8.65;;;;;;;;;;4992672;28;20030;-78
2022/11/21 08:00:43;;;;;;;11.05;8.52;;;;;;;;;;4992667;28;20105;-78
2022/11/21 08:03:10;;;;;;;12.18;8.57;;;;;;;;;;4992477;28;20569;-78
2022/11/21 08:05:43;;;;;;;10.60;8.25;;;;;;;;;;4994048;28;20149;-79
2022/11/21 08:08:12;;;;;;;9.45;7.60;;;;;;;;;;5008839;28;20057;-79
2022/11/21 08:10:43;;;;;;;10.95;8.20;;;;;;;;;;4993769;28;20030;-78
2022/11/21 08:13:09;;;;;;;11.50;8.48;;;;;;;;;;4992504;28;20190;-79
2022/11/21 08:15:34;;;;;;;12.25;8.38;;;;;;;;;;4993840;28;20026;-78
2022/11/21 08:18:19;;;;;;;10.48;8.00;;;;;;;;;;4994059;28;20026;-78
2022/11/21 08:20:44;;;;;;;12.55;8.40;;;;;;;;;;4993299;28;20454;-79
2022/11/21 08:23:10;;;;;;;11.43;8.65;;;;;;;;;;4992703;28;20035;-79
2022/11/21 08:25:39;;;;;;;11.60;8.07;;;;;;;;;;4993863;28;20066;-79
2022/11/21 08:28:06;;;;;;;11.48;8.05;;;;;;;;;;4992425;28;20397;-78
2022/11/21 08:30:32;;;;;;;10.55;7.88;;;;;;;;;;4992758;28;20026;-79
2022/11/21 08:32:58;;;;;;;14.18;8.13;;;;;;;;;;4992373;28;20055;-79
2022/11/21 08:35:27;;;;;;;13.15;9.05;;;;;;;;;;4992715;28;20050;-78
2022/11/21 08:37:59;;;;;;;10.50;8.52;;;;;;;;;;4992469;28;20401;-78
2022/11/21 08:40:26;;;;;;;11.40;8.38;;;;;;;;;;4992782;28;20459;-78
2022/11/21 08:42:58;;;;;;;12.88;8.70;;;;;;;;;;4993894;28;20026;-78
2022/11/21 08:45:24;;;;;;;10.95;8.35;;;;;;;;;;4992337;28;20120;-78
2022/11/21 08:47:50;;;;;;;11.23;8.52;;;;;;;;;;4992791;28;20026;-78
2022/11/21 08:50:15;;;;;;;11.93;8.52;;;;;;;;;;4992247;28;20088;-78
2022/11/21 08:52:41;;;;;;;11.55;8.32;;;;;;;;;;4992317;28;20081;-78
2022/11/21 08:55:07;;;;;;;10.93;8.38;;;;;;;;;;4992658;28;20534;-79
2022/11/21 08:57:37;;;;;;;12.40;8.20;;;;;;;;;;4993463;28;20096;-77
2022/11/21 09:00:03;;;;;;;11.13;8.38;;;;;;;;;;4997795;28;20026;-78
2022/11/21 09:02:28;;;;;;;10.38;7.63;;;;;;;;;;4997309;28;20045;-78
2022/11/21 09:04:53;;;;;;;9.88;7.63;;;;;;;;;;4997578;28;20493;-78
2022/11/21 09:07:19;;;;;;;10.52;8.10;;;;;;;;;;4996065;28;20050;-78
2022/11/21 09:09:44;;;;;;;9.95;8.07;;;;;;;;;;4997284;28;20068;-78
2022/11/21 09:12:09;;;;;;;11.32;7.97;;;;;;;;;;4997067;28;20031;-78
2022/11/21 09:20:03;;;;;;;10.60;7.57;;;;;;;;;;4996977;28;20037;-78
2022/11/21 09:22:28;;;;;;;9.63;7.47;;;;;;;;;;4997487;28;20195;-78
2022/11/21 09:24:54;;;;;;;8.77;7.05;;;;;;;;;;4997386;28;20026;-78
2022/11/21 09:27:19;;;;;;;8.48;6.95;;;;;;;;;;4997792;28;20041;-78
2022/11/21 09:29:44;;;;;;;8.70;6.93;;;;;;;;;;4995893;28;20038;-78
2022/11/21 09:32:10;;;;;;;8.75;6.75;;;;;;;;;;4997206;28;20393;-78
2022/11/21 09:34:35;;;;;;;8.13;6.40;;;;;;;;;;4996540;28;20045;-78
2022/11/21 09:37:00;;;;;;;7.72;6.38;;;;;;;;;;4996588;28;20038;-78
2022/11/21 09:39:26;;;;;;;7.18;5.63;;;;;;;;;;4996749;28;20381;-78
2022/11/21 09:41:58;;;;;;;9.18;6.43;;;;;;;;;;4996763;28;20042;-78
2022/11/21 09:44:53;;;;;;;7.70;6.38;;;;;;;;;;4996306;28;20106;-78
2022/11/21 09:47:34;;;;;;;7.85;5.82;;;;;;;;;;4996581;28;20022;-78
2022/11/21 09:50:00;;;;;;;8.30;6.13;;;;;;;;;;4995459;28;20429;-78
2022/11/21 09:52:36;;;;;;;7.28;5.70;;;;;;;;;;4995146;28;20018;-78
2022/11/21 09:55:05;;;;;;;6.15;5.28;;;;;;;;;;4995009;28;20049;-78
2022/11/21 09:57:31;;;;;;;8.55;5.70;;;;;;;;;;4995324;28;20485;-78
2022/11/21 09:59:57;;;;;;;8.40;5.68;;;;;;;;;;4995362;28;20033;-78
2022/11/21 10:02:23;;;;;;;8.25;5.60;;;;;;;;;;4994909;28;20026;-78
2022/11/21 10:04:49;;;;;;;7.22;5.70;;;;;;;;;;4994664;28;20089;-78
2022/11/21 10:07:16;;;;;;;6.75;5.30;;;;;;;;;;4994795;28;20022;-78
2022/11/21 10:09:58;;;;;;;5.57;4.97;;;;;;;;;;4994430;28;20026;-78
2022/11/21 10:13:01;;;;;;;8.88;5.88;;;;;;;;;;4994682;28;20054;-78
2022/11/21 10:15:53;;;;;;;7.57;5.53;;;;;;;;;;4995089;28;20022;-78
2022/11/21 10:18:49;;;;;;;9.00;5.95;;;;;;;;;;4993660;28;20042;-78
2022/11/21 10:21:34;;;;;;;7.15;5.53;;;;;;;;;;4994489;28;20025;-78
2022/11/21 10:24:15;;;;;;;6.90;5.32;;;;;;;;;;4995923;28;20038;-78
2022/11/21 10:26:51;;;;;;;8.65;5.20;;;;;;;;;;4995744;28;20030;-79
2022/11/21 10:29:25;;;;;;;7.55;5.40;;;;;;;;;;4995872;28;20461;-78
2022/11/21 10:31:54;;;;;;;7.45;5.30;;;;;;;;;;4994295;28;20030;-78
2022/11/21 10:34:23;;;;;;;7.95;5.75;;;;;;;;;;4994219;28;20053;-78
2022/11/21 10:36:55;;;;;;;7.35;5.47;;;;;;;;;;4994220;28;20113;-78
2022/11/21 10:39:26;;;;;;;7.43;5.20;;;;;;;;;;4994286;28;20109;-78
2022/11/21 10:41:59;;;;;;;7.50;5.55;;;;;;;;;;4994317;28;20478;-78
2022/11/21 10:47:28;;;;;;;9.38;5.95;;;;;;;;;;4995606;28;20037;-78
2022/11/21 10:50:09;;;;;;;6.67;5.07;;;;;;;;;;4994204;28;20030;-78
2022/11/21 10:54:31;;;;;;;8.43;5.43;;;;;;;;;;5010315;28;20046;-78
2022/11/21 10:56:05;;;;;;;6.90;5.22;;;;;;;;;;4993580;28;20045;-78
2022/11/21 10:58:50;;;;;;;7.40;5.00;;;;;;;;;;4993646;28;20046;-78
2022/11/21 11:01:23;;;;;;;6.85;5.22;;;;;;;;;;4977529;28;20026;-78
2022/11/21 11:04:12;;;;;;;8.23;5.60;;;;;;;;;;4993515;28;20034;-78
2022/11/21 11:06:39;;;;;;;8.00;5.68;;;;;;;;;;4995687;28;20042;-78
2022/11/21 11:09:06;;;;;;;7.03;5.18;;;;;;;;;;4993828;28;20454;-78
2022/11/21 11:11:31;;;;;;;9.07;5.35;;;;;;;;;;4995321;28;20022;-78
2022/11/21 11:13:59;;;;;;;7.63;5.57;;;;;;;;;;4993618;28;20038;-78
2022/11/21 11:16:26;;;;;;;6.38;5.05;;;;;;;;;;4977536;28;20033;-78
2022/11/21 11:18:59;;;;;;;7.93;5.15;;;;;;;;;;4995033;28;20058;-78
2022/11/21 11:21:38;;;;;;;9.90;5.47;;;;;;;;;;4994328;28;20385;-77
2022/11/21 11:24:06;;;;;;;7.65;5.50;;;;;;;;;;4995092;28;20042;-78
2022/11/21 11:26:32;;;;;;;7.35;5.63;;;;;;;;;;4994496;28;20030;-78
2022/11/21 11:29:17;;;;;;;9.68;5.55;;;;;;;;;;4994424;28;20505;-78
2022/11/21 11:31:48;;;;;;;6.70;5.15;;;;;;;;;;4994387;28;20045;-78
2022/11/21 11:34:14;;;;;;;8.73;5.30;;;;;;;;;;4992840;28;20449;-77
2022/11/21 11:37:03;;;;;;;7.50;5.40;;;;;;;;;;4992985;28;20046;-77
2022/11/21 11:39:39;;;;;;;6.93;5.03;;;;;;;;;;4993242;28;20033;-78
2022/11/21 11:48:16;;;;;;;6.28;4.93;;;;;;;;;;4994412;28;20037;-78
2022/11/21 11:50:51;;;;;;;12.32;4.35;;;;;;;;;;4992574;28;20074;-78
2022/11/21 11:53:39;;;;;;;9.73;4.90;;;;;;;;;;4976589;28;20037;-78
2022/11/21 11:56:14;;;;;;;6.95;5.00;;;;;;;;;;4976669;28;20125;-78
2022/11/21 11:58:54;;;;;;;8.82;5.30;;;;;;;;;;4992637;28;20366;-78
2022/11/21 12:01:43;;;;;;;6.82;5.30;;;;;;;;;;4992765;28;20037;-77
2022/11/21 12:04:13;;;;;;;6.85;4.90;;;;;;;;;;4993837;28;20026;-77
2022/11/21 12:07:28;;;;;;;7.93;5.28;;;;;;;;;;4992804;28;20033;-77
2022/11/21 12:10:16;;;;;;;9.25;5.28;;;;;;;;;;4979645;28;20096;-77
2022/11/21 12:12:44;;;;;;;10.00;5.78;;;;;;;;;;4992952;28;20038;-78
2022/11/21 12:18:18;;;;;;;11.50;5.13;;;;;;;;;;4994411;28;20049;-77
2022/11/21 12:20:58;;;;;;;9.45;5.35;;;;;;;;;;4993944;28;20109;-78
2022/11/21 12:23:31;;;;;;;7.80;5.13;;;;;;;;;;4992498;28;20022;-78
2022/11/21 12:26:15;;;;;;;9.15;5.65;;;;;;;;;;4992417;28;20392;-78
2022/11/21 12:29:10;;;;;;;9.68;5.55;;;;;;;;;;4994000;28;20033;-78
2022/11/21 12:31:47;;;;;;;7.55;5.13;;;;;;;;;;4994031;28;20029;-78
2022/11/21 12:34:16;;;;;;;9.65;5.65;;;;;;;;;;4999741;28;20506;-78
2022/11/21 12:37:18;;;;;;;9.35;5.20;;;;;;;;;;4999886;28;20028;-78
2022/11/21 12:39:46;;;;;;;11.32;5.25;;;;;;;;;;4998629;28;20058;-78
2022/11/21 12:45:31;;;;;;;8.43;5.28;;;;;;;;;;4997057;28;20050;-75
2022/11/21 12:54:30;;;;;;;8.60;5.20;;;;;;;;;;4999628;28;20045;-75
2022/11/21 12:57:04;;;;;;;7.28;4.97;;;;;;;;;;5000205;28;20026;-77
2022/11/21 12:59:30;;;;;;;9.13;5.05;;;;;;;;;;4998074;28;20113;-77
2022/11/21 13:01:55;;;;;;;9.00;5.25;;;;;;;;;;4997893;28;20101;-76
2022/11/21 13:04:27;;;;;;;6.93;5.28;;;;;;;;;;5012863;28;20473;-78
2022/11/21 13:06:53;;;;;;;9.20;5.60;;;;;;;;;;4996979;28;20381;-78
2022/11/21 13:09:21;;;;;;;8.35;5.63;;;;;;;;;;4996845;28;20042;-76
2022/11/21 13:11:58;;;;;;;10.73;5.20;;;;;;;;;;4995783;28;20046;-76
2022/11/21 13:14:35;;;;;;;8.35;5.00;;;;;;;;;;5011379;28;20382;-77
2022/11/21 13:17:24;;;;;;;7.10;5.10;;;;;;;;;;5011211;28;20117;-78
2022/11/21 13:19:56;;;;;;;5.60;4.75;;;;;;;;;;4996961;28;20096;-77
2022/11/21 13:22:45;;;;;;;7.05;4.82;;;;;;;;;;4996309;28;20022;-75
2022/11/21 13:25:13;;;;;;;8.57;4.60;;;;;;;;;;4990767;28;20050;-77
2022/11/21 13:27:40;;;;;;;9.93;5.28;;;;;;;;;;4979131;28;20026;-75
2022/11/21 13:30:05;;;;;;;7.07;5.25;;;;;;;;;;4994953;28;20034;-77
2022/11/21 13:32:49;;;;;;;7.05;4.80;;;;;;;;;;4996684;28;20026;-77
2022/11/21 13:35:18;;;;;;;7.80;5.13;;;;;;;;;;4996103;28;20545;-76
2022/11/21 13:38:02;;;;;;;7.45;5.38;;;;;;;;;;5011903;28;20081;-76
2022/11/21 13:40:30;;;;;;;;;;;;;;;;;;4996914;28;20457;-77
2022/11/21 13:43:08;;;;;;;6.45;4.63;;;;;;;;;;4997991;28;20240;-77
2022/11/21 13:45:48;;;;;;;8.30;4.95;;;;;;;;;;4996752;28;20073;-76
2022/11/21 13:48:17;;;;;;;9.95;4.53;;;;;;;;;;4995825;28;20106;-78
2022/11/21 13:51:23;;;;;;;10.05;4.88;;;;;;;;;;4996748;28;20058;-76
2022/11/21 13:54:22;;;;;;;9.52;5.05;;;;;;;;;;4980073;28;20042;-77
2022/11/21 13:57:24;;;;;;;10.15;4.97;;;;;;;;;;4996717;28;20033;-77
2022/11/21 13:59:54;;;;;;;10.93;5.05;;;;;;;;;;4995875;28;20548;-78
2022/11/21 14:02:52;;;;;;;5.82;4.63;;;;;;;;;;4995754;28;20038;-77
2022/11/21 14:05:42;;;;;;;9.15;5.18;;;;;;;;;;4994688;28;20027;-77
2022/11/21 14:08:18;;;;;;;8.77;5.30;;;;;;;;;;4997000;28;20045;-78
2022/11/21 14:10:45;;;;;;;9.35;5.20;;;;;;;;;;4995146;28;20029;-76
2022/11/21 14:13:33;;;;;;;9.30;5.30;;;;;;;;;;4996431;28;20448;-78
2022/11/21 14:16:02;;;;;;;8.57;4.45;;;;;;;;;;4996800;28;20030;-79
2022/11/21 14:18:28;;;;;;;18.75;5.55;;;;;;;;;;4996163;28;20441;-78
2022/11/21 14:20:59;;;;;;;18.48;5.35;;;;;;;;;;4994940;28;20034;-77
2022/11/21 14:23:28;;;;;;;11.93;6.20;;;;;;;;;;4994363;28;20404;-77
2022/11/21 14:26:04;;;;;;;9.50;4.88;;;;;;;;;;4978012;28;20064;-77
2022/11/21 14:28:31;;;;;;;11.18;5.55;;;;;;;;;;4994415;28;20036;-76
2022/11/21 14:31:02;;;;;;;9.90;4.70;;;;;;;;;;4993819;28;20031;-75
2022/11/21 14:33:31;;;;;;;10.80;5.55;;;;;;;;;;4993213;28;20477;-77
2022/11/21 14:36:15;;;;;;;12.05;5.05;;;;;;;;;;4992918;28;20042;-77
2022/11/21 14:38:49;;;;;;;10.02;4.40;;;;;;;;;;4994411;28;20038;-76
2022/11/21 14:41:31;;;;;;;10.27;4.50;;;;;;;;;;4976856;28;20105;-76
2022/11/21 14:43:56;;;;;;;7.75;4.57;;;;;;;;;;4994294;28;20106;-77
2022/11/21 14:46:32;;;;;;;7.30;4.45;;;;;;;;;;4994285;28;20113;-77
2022/11/21 14:49:16;;;;;;;10.13;4.82;;;;;;;;;;4992588;28;20068;-77
2022/11/21 14:51:43;;;;;;;8.57;4.78;;;;;;;;;;4994193;28;20030;-77
2022/11/21 14:54:13;;;;;;;5.75;4.40;;;;;;;;;;4992523;28;20113;-76
2022/11/21 14:56:39;;;;;;;8.88;4.80;;;;;;;;;;4991465;28;20026;-77
2022/11/21 14:59:14;;;;;;;6.28;4.30;;;;;;;;;;4992515;28;20042;-75
2022/11/21 15:01:40;;;;;;;11.27;4.28;;;;;;;;;;4992436;28;20470;-77
2022/11/21 15:04:07;;;;;;;6.93;4.72;;;;;;;;;;4992160;28;20034;-76
2022/11/21 15:06:41;;;;;;;7.95;4.72;;;;;;;;;;5008880;28;20037;-77
2022/11/21 15:09:10;;;;;;;;;;;;;;;;;;4992798;28;20030;-77
2022/11/21 15:11:41;;;;;;;8.95;4.43;;;;;;;;;;4994367;28;20135;-77
2022/11/21 15:14:25;;;;;;;7.13;4.20;;;;;;;;;;4993234;28;20060;-78
2022/11/21 15:16:51;;;;;;;;;;;;;;;;;;4993581;28;20600;-77
2022/11/21 15:19:27;;;;;;;5.93;4.03;;;;;;;;;;4992322;28;19945;-77
2022/11/21 15:21:57;;;;;;;7.45;4.38;;;;;;;;;;4991539;28;20080;-77
2022/11/21 15:24:41;;;;;;;6.88;4.13;;;;;;;;;;4991454;28;20057;-76
2022/11/21 15:27:29;;;;;;;7.03;4.07;;;;;;;;;;4991623;28;20034;-77
2022/11/21 15:30:06;;;;;;;6.30;4.18;;;;;;;;;;5010173;28;20034;-76
2022/11/21 15:32:31;;;;;;;8.18;4.63;;;;;;;;;;4992729;28;20393;-77